Iaşi, România

04:48 PM EEST on mai 28, 2015 (GMT +0300)
Iasi | | Change Station
CLOSE
Current Station
Aeroport
Location: Iasi,
Elevation: 338 ft
Nearby Weather Stations

Elev 338 ft 47.16 °N, 27.63 °E | Updated 18 minutes ago

Mostly Cloudy
Cer în general noros
57 °F
Feels Like 57 °F
N
16
Vânt variabil Vânt from NV

astăzi
High -- | Low -- °F
--% Chance of Precip.
Ieri
High -- | Low -- °F
Precip. -- inch
5:20 AM 8:53 PM
Lună în creştere, 76% visible
Presiunea 29.86 inch
Vizibilitatea 6.2 mile
Nori Cer în general noros 3100 ft
Punctul de rouă 45 °F
Umiditatea 63%
Precipitaţii 0.00 inch
Adâncimea zăpezii Not available.
UV 3 out of 12
Pollen Not available.
Calitatea aerului Not available.
Flu Activity Not available.
METAR LRIA 281330Z 31014KT 9999 BKN031 14/07 Q1011

More Conditions Fewer Conditions

Presiunea 29.86 inch
Vizibilitatea 6.2 mile
Nori Cer în general noros 3100 ft
Punctul de rouă 45 °F
Umiditatea 63%
Precipitaţii 0.00 inch
Adâncimea zăpezii Not available.
UV 3 out of 12
Pollen Not available.
Calitatea aerului Not available.
Flu Activity Not available.
METAR LRIA 281330Z 31014KT 9999 BKN031 14/07 Q1011

More Conditions Fewer Conditions

10-Day Weather Forecast

Almanac

Astronomie

May. 28, 2015 Răsărit Apus
Timpul Actual
Crepusculul Civil
Crepusculul nautic
Răsărit Astronomic
Luna
Durata zilei lumină
Lungimea zilei
Tomorrow will be .
, % of the Moon is Illuminated

Extremele de azi

Country Highs Country Lows

Community

WunderPhotos

Upload Photos

1,824,972 photos uploaded!

WunderBlogs® & News

Nearby

Calitatea aerului

  Calitatea aerului Index de calitate a aerului Poluat
Not available.

Adâncimea zapezii

Station Depth Elevation

Earthquake Activity

Oraş Distance Mag. Time & Date
Minimum magnitude displayed is 2.5.

Coastal Water Temperatures

Locul Temperatura

Stations

Nearby Weather Stations

Locaţia staţiei Temp Vânt rece Punctul de rouă Umiditatea Vânt Precip. Elev Actualizare Type